createdAt,value
2023-03-04T00:00:20.495Z,65.00
2023-03-04T00:03:15.546Z,58.60
2023-03-04T00:05:48.569Z,67.20
2023-03-04T00:08:21.026Z,60.40
2023-03-04T00:10:54.075Z,62.80
2023-03-04T00:13:26.386Z,62.10
2023-03-04T00:15:58.760Z,61.80
2023-03-04T00:18:31.076Z,65.90
2023-03-04T00:21:03.583Z,61.10
2023-03-04T00:23:36.080Z,56.60
2023-03-04T00:26:09.762Z,61.40
2023-03-04T00:28:42.065Z,65.40
2023-03-04T00:31:14.655Z,66.60
2023-03-04T00:33:47.155Z,58.40
2023-03-04T00:36:19.511Z,57.70
2023-03-04T00:38:51.828Z,58.80
2023-03-04T00:41:24.179Z,64.40
2023-03-04T00:43:56.668Z,69.20
2023-03-04T00:46:28.885Z,65.20
2023-03-04T00:49:01.273Z,57.20
2023-03-04T00:51:33.823Z,58.80
2023-03-04T00:54:06.402Z,62.50
2023-03-04T00:56:38.763Z,59.70
2023-03-04T00:59:11.155Z,57.70
2023-03-04T01:01:43.647Z,57.60
2023-03-04T01:04:16.039Z,65.70
2023-03-04T01:06:48.429Z,69.20
2023-03-04T01:09:20.826Z,52.60
2023-03-04T01:11:53.174Z,59.60
2023-03-04T01:14:25.611Z,57.70
2023-03-04T01:16:58.022Z,67.90
2023-03-04T01:19:30.400Z,64.80
2023-03-04T01:22:03.725Z,56.70
2023-03-04T01:24:36.731Z,63.50
2023-03-04T01:27:09.058Z,62.60
2023-03-04T01:29:41.414Z,63.00
2023-03-04T01:32:13.768Z,65.50
2023-03-04T01:34:46.229Z,64.10
2023-03-04T01:37:19.462Z,61.90
2023-03-04T01:39:51.789Z,62.70
2023-03-04T01:42:25.923Z,60.80
2023-03-04T01:44:58.271Z,61.00
2023-03-04T01:47:33.578Z,61.00
2023-03-04T01:50:15.650Z,64.40
2023-03-04T01:52:47.966Z,59.30
2023-03-04T01:55:22.188Z,68.70
2023-03-04T01:57:55.832Z,58.80
2023-03-04T02:00:33.830Z,62.90
2023-03-04T02:03:11.511Z,59.10
2023-03-04T02:05:46.697Z,67.70
2023-03-04T02:08:22.261Z,66.10
2023-03-04T02:10:55.591Z,65.40
2023-03-04T02:13:27.916Z,67.00
2023-03-04T02:16:00.458Z,66.50
2023-03-04T02:18:32.855Z,63.10
2023-03-04T02:21:13.957Z,64.50
2023-03-04T02:23:52.634Z,55.60
2023-03-04T02:26:26.560Z,60.00
2023-03-04T02:29:01.114Z,61.00
2023-03-04T02:31:37.112Z,67.90
2023-03-04T02:34:14.894Z,55.80
2023-03-04T02:36:48.589Z,60.30
2023-03-04T02:39:30.980Z,62.10
2023-03-04T02:42:04.768Z,63.70
2023-03-04T02:44:38.746Z,72.10
2023-03-04T02:47:13.329Z,67.60
2023-03-04T02:49:45.967Z,58.60
2023-03-04T02:52:22.136Z,58.10
2023-03-04T02:54:54.514Z,71.60
2023-03-04T02:57:26.828Z,66.40
2023-03-04T02:59:59.099Z,62.20
2023-03-04T03:02:31.486Z,59.80
2023-03-04T03:05:03.998Z,64.30
2023-03-04T03:07:36.366Z,62.60
2023-03-04T03:10:09.637Z,60.10
2023-03-04T03:12:42.093Z,60.60
2023-03-04T03:15:15.088Z,56.40
2023-03-04T03:17:47.642Z,55.30
2023-03-04T03:20:20.619Z,61.70
2023-03-04T03:22:52.911Z,64.10
2023-03-04T03:25:25.600Z,55.20
2023-03-04T03:27:57.875Z,54.40
2023-03-04T03:30:31.328Z,58.10
2023-03-04T03:33:03.717Z,62.10
2023-03-04T03:35:36.171Z,57.00
2023-03-04T03:38:08.590Z,56.10
2023-03-04T03:40:41.029Z,60.90
2023-03-04T03:43:13.382Z,61.30
2023-03-04T03:45:45.832Z,63.50
2023-03-04T03:48:18.156Z,65.20
2023-03-04T03:50:50.634Z,63.30
2023-03-04T03:53:22.965Z,61.80
2023-03-04T03:55:56.212Z,60.10
2023-03-04T03:58:28.580Z,58.20
2023-03-04T04:01:01.085Z,61.00
2023-03-04T04:03:33.409Z,60.40
2023-03-04T04:06:05.939Z,52.70
2023-03-04T04:08:38.246Z,63.70
2023-03-04T04:11:12.809Z,67.20
2023-03-04T04:13:45.343Z,61.30
2023-03-04T04:16:17.889Z,63.40
2023-03-04T04:18:50.497Z,63.70
2023-03-04T04:21:23.027Z,54.50
2023-03-04T04:23:55.441Z,63.60
2023-03-04T04:26:27.777Z,57.00
2023-03-04T04:29:00.143Z,60.20
2023-03-04T04:31:32.572Z,62.30
2023-03-04T04:34:04.862Z,62.00
2023-03-04T04:36:37.285Z,57.90
2023-03-04T04:39:09.613Z,58.70
2023-03-04T04:41:43.638Z,69.00
2023-03-04T04:44:16.464Z,59.70
2023-03-04T04:46:48.844Z,65.10
2023-03-04T04:49:21.582Z,69.10
2023-03-04T04:51:53.875Z,71.20
2023-03-04T04:54:26.810Z,62.90
2023-03-04T04:56:59.123Z,61.50
2023-03-04T04:59:31.503Z,59.50
2023-03-04T05:02:03.856Z,67.80
2023-03-04T05:04:36.305Z,66.40
2023-03-04T05:07:08.691Z,65.00
2023-03-04T05:09:41.398Z,66.80
2023-03-04T05:12:13.658Z,67.90
2023-03-04T05:14:45.922Z,70.10
2023-03-04T05:17:18.358Z,63.60
2023-03-04T05:19:51.643Z,69.10
2023-03-04T05:22:23.888Z,62.90
2023-03-04T05:24:57.343Z,70.00
2023-03-04T05:27:29.630Z,65.30
2023-03-04T05:30:02.033Z,72.70
2023-03-04T05:32:34.438Z,72.60
2023-03-04T05:35:08.064Z,62.50
2023-03-04T05:37:40.481Z,69.10
2023-03-04T05:40:15.282Z,68.30
2023-03-04T05:42:47.746Z,58.10
2023-03-04T05:45:20.386Z,60.60
2023-03-04T05:47:52.785Z,72.10
2023-03-04T05:50:25.902Z,67.60
2023-03-04T05:52:58.373Z,69.60
2023-03-04T05:55:30.798Z,73.80
2023-03-04T05:58:03.267Z,73.30
2023-03-04T06:00:35.649Z,68.40
2023-03-04T06:03:08.523Z,65.20
2023-03-04T06:05:40.859Z,67.10
2023-03-04T06:08:14.018Z,62.00
2023-03-04T06:10:46.294Z,67.80
2023-03-04T06:13:18.568Z,64.40
2023-03-04T06:15:55.333Z,76.90
2023-03-04T06:18:29.018Z,64.20
2023-03-04T06:21:03.521Z,70.10
2023-03-04T06:23:36.068Z,74.90
2023-03-04T06:26:12.323Z,68.40
2023-03-04T06:28:44.741Z,69.30
2023-03-04T06:31:17.182Z,63.20
2023-03-04T06:33:50.088Z,67.70
2023-03-04T06:36:22.467Z,60.80
2023-03-04T06:38:54.663Z,68.10
2023-03-04T06:41:27.002Z,67.10
2023-03-04T06:43:59.503Z,68.10
2023-03-04T06:46:32.099Z,59.90
2023-03-04T06:49:04.733Z,61.70
2023-03-04T06:51:37.316Z,67.10
2023-03-04T06:54:10.619Z,57.40
2023-03-04T06:56:42.948Z,56.10
2023-03-04T06:59:15.358Z,63.50
2023-03-04T07:01:47.664Z,61.10
2023-03-04T07:04:20.274Z,67.70
2023-03-04T07:06:52.758Z,75.90
2023-03-04T07:09:25.228Z,82.00
2023-03-04T07:11:57.512Z,79.50
2023-03-04T07:14:30.072Z,81.60
2023-03-04T07:17:02.456Z,77.10
2023-03-04T07:19:34.854Z,71.60
2023-03-04T07:22:07.385Z,60.60
2023-03-04T07:24:39.776Z,73.20
2023-03-04T07:27:12.164Z,71.00
2023-03-04T07:29:44.425Z,73.00
2023-03-04T07:32:17.000Z,79.50
2023-03-04T07:34:49.436Z,77.80
2023-03-04T07:37:22.382Z,75.70
2023-03-04T07:39:54.734Z,80.90
2023-03-04T07:42:27.157Z,80.90
2023-03-04T07:45:00.271Z,73.00
2023-03-04T07:47:32.748Z,82.00
2023-03-04T07:50:05.314Z,85.30
2023-03-04T07:52:41.385Z,71.60
2023-03-04T07:55:16.633Z,90.80
2023-03-04T07:57:50.567Z,77.30
2023-03-04T08:00:24.535Z,84.40
2023-03-04T08:02:57.149Z,75.10
2023-03-04T08:05:29.472Z,78.80
2023-03-04T08:08:01.818Z,83.00
2023-03-04T08:10:34.113Z,80.10
2023-03-04T08:13:06.443Z,84.30
2023-03-04T08:15:43.488Z,79.30
2023-03-04T08:18:15.919Z,73.30
2023-03-04T08:20:48.267Z,92.80
2023-03-04T08:23:20.692Z,83.00
2023-03-04T08:25:53.195Z,82.30
2023-03-04T08:28:25.504Z,88.10
2023-03-04T08:30:58.230Z,83.10
2023-03-04T08:33:30.675Z,79.80
2023-03-04T08:36:03.133Z,76.10
2023-03-04T08:38:37.161Z,91.50
2023-03-04T08:41:10.022Z,80.30
2023-03-04T08:43:42.734Z,80.40
2023-03-04T08:46:15.288Z,76.70
2023-03-04T08:48:48.112Z,75.90
2023-03-04T08:51:20.666Z,79.20
2023-03-04T08:53:53.155Z,81.10
2023-03-04T08:56:25.608Z,65.10
2023-03-04T08:58:58.150Z,59.80
2023-03-04T09:01:30.554Z,63.60
2023-03-04T09:04:02.873Z,66.00
2023-03-04T09:06:35.272Z,58.00
2023-03-04T09:09:07.888Z,51.50
2023-03-04T09:11:40.534Z,46.50
2023-03-04T09:14:12.997Z,62.10
2023-03-04T09:16:45.381Z,64.10
2023-03-04T09:19:17.727Z,59.00
2023-03-04T09:21:50.127Z,58.40
2023-03-04T09:24:22.417Z,58.50
2023-03-04T09:26:55.574Z,45.00
2023-03-04T09:29:27.957Z,43.60
2023-03-04T09:32:00.369Z,41.10
2023-03-04T09:34:32.670Z,40.50
2023-03-04T09:37:05.049Z,37.30
2023-03-04T09:39:37.559Z,39.40
2023-03-04T09:42:19.593Z,40.70
2023-03-04T09:44:53.453Z,35.20
2023-03-04T09:47:28.093Z,32.60
2023-03-04T09:50:03.984Z,31.40
2023-03-04T09:52:51.834Z,34.00
2023-03-04T09:55:29.761Z,32.70
2023-03-04T09:58:08.233Z,35.70
2023-03-04T10:00:43.658Z,36.40
2023-03-04T10:03:22.001Z,29.60
2023-03-04T10:06:01.085Z,38.20
2023-03-04T10:08:45.673Z,34.10
2023-03-04T10:11:24.883Z,37.70
2023-03-04T10:14:13.268Z,34.20
2023-03-04T10:16:50.451Z,34.70
2023-03-04T10:19:38.430Z,36.50
2023-03-04T10:22:22.168Z,32.20
2023-03-04T10:24:57.156Z,35.60
2023-03-04T10:27:30.357Z,30.80
2023-03-04T10:30:03.488Z,34.00
2023-03-04T10:32:35.937Z,32.80
2023-03-04T10:35:13.485Z,38.50
2023-03-04T10:37:54.019Z,33.30
2023-03-04T10:40:28.654Z,34.60
2023-03-04T10:43:07.304Z,32.60
2023-03-04T10:45:43.321Z,35.90
2023-03-04T10:48:26.716Z,40.20
2023-03-04T10:51:14.690Z,32.90
2023-03-04T10:53:48.773Z,34.60
2023-03-04T10:56:42.971Z,31.60
2023-03-04T10:59:46.375Z,29.80
2023-03-04T11:02:25.451Z,34.30
2023-03-04T11:05:07.431Z,38.80
2023-03-04T11:07:54.440Z,34.50
2023-03-04T11:10:31.462Z,40.60
2023-03-04T11:13:10.225Z,35.90
2023-03-04T11:15:53.458Z,39.40
2023-03-04T11:18:30.793Z,38.30
2023-03-04T11:21:04.189Z,39.00
2023-03-04T11:23:43.029Z,38.50
2023-03-04T11:26:19.851Z,38.10
2023-03-04T11:28:58.229Z,42.70
2023-03-04T11:31:36.540Z,39.40
2023-03-04T11:34:17.504Z,43.90
2023-03-04T11:36:57.439Z,47.80
2023-03-04T11:39:37.627Z,42.50
2023-03-04T11:42:25.045Z,46.40
2023-03-04T11:44:58.223Z,40.80
2023-03-04T11:47:42.611Z,46.50
2023-03-04T11:50:34.393Z,42.60
2023-03-04T11:53:34.022Z,44.40
2023-03-04T11:56:24.079Z,54.90
2023-03-04T11:59:20.529Z,50.40
2023-03-04T12:02:06.155Z,57.00
2023-03-04T12:04:48.984Z,65.50
2023-03-04T12:07:40.555Z,62.30
2023-03-04T12:10:23.667Z,63.20
2023-03-04T12:13:24.704Z,63.70
2023-03-04T12:16:06.251Z,60.70
2023-03-04T12:18:51.219Z,64.10
2023-03-04T12:21:44.798Z,57.10
2023-03-04T12:24:35.606Z,68.70
2023-03-04T12:27:18.135Z,63.70
2023-03-04T12:29:57.992Z,63.40
2023-03-04T12:32:41.721Z,68.10
2023-03-04T12:35:38.060Z,61.00
2023-03-04T12:38:45.691Z,74.30
2023-03-04T12:41:29.693Z,64.50
2023-03-04T12:44:13.411Z,62.40
2023-03-04T12:46:59.140Z,67.20
2023-03-04T12:49:51.300Z,70.50
2023-03-04T12:52:34.342Z,65.00
2023-03-04T12:55:11.405Z,61.60
2023-03-04T12:57:44.084Z,68.20
2023-03-04T13:00:31.845Z,64.30
2023-03-04T13:03:12.408Z,51.80
2023-03-04T13:06:08.979Z,53.30
2023-03-04T13:08:52.705Z,54.60
2023-03-04T13:11:55.863Z,54.50
2023-03-04T13:14:33.925Z,52.90
2023-03-04T13:17:43.673Z,65.30
2023-03-04T13:20:23.384Z,56.90
2023-03-04T13:22:59.439Z,57.60
2023-03-04T13:25:44.303Z,54.80
2023-03-04T13:28:25.760Z,59.20
2023-03-04T13:31:34.114Z,58.00
2023-03-04T13:34:28.925Z,59.50
2023-03-04T13:37:01.238Z,51.20
2023-03-04T13:39:38.044Z,50.80
2023-03-04T13:42:42.604Z,47.10
2023-03-04T13:45:36.781Z,52.00
2023-03-04T13:48:24.959Z,47.80
2023-03-04T13:50:57.677Z,50.70
2023-03-04T13:53:47.592Z,58.50
2023-03-04T13:56:39.715Z,60.00
2023-03-04T13:59:33.725Z,58.70
2023-03-04T14:02:12.814Z,56.00
2023-03-04T14:04:46.670Z,57.50
2023-03-04T14:07:26.195Z,56.20
2023-03-04T14:10:01.353Z,53.50
2023-03-04T14:12:36.789Z,62.50
2023-03-04T14:15:23.826Z,55.30
2023-03-04T14:17:58.527Z,52.80
2023-03-04T14:20:33.278Z,53.40
2023-03-04T14:23:24.279Z,65.60
2023-03-04T14:26:07.190Z,58.20
2023-03-04T14:28:47.982Z,58.20
2023-03-04T14:31:23.201Z,68.10
2023-03-04T14:34:02.093Z,65.60
2023-03-04T14:36:37.627Z,64.50
2023-03-04T14:39:16.661Z,60.80
2023-03-04T14:41:51.771Z,60.10
2023-03-04T14:44:30.650Z,55.40
2023-03-04T14:47:09.109Z,49.60
2023-03-04T14:49:42.020Z,53.10
2023-03-04T14:52:36.251Z,59.90
2023-03-04T14:55:25.620Z,58.70
2023-03-04T14:58:10.230Z,58.40
2023-03-04T15:00:43.294Z,48.90
2023-03-04T15:03:25.622Z,53.90
2023-03-04T15:05:58.575Z,60.80
2023-03-04T15:08:35.521Z,43.80
2023-03-04T15:11:10.029Z,51.10
2023-03-04T15:13:44.614Z,50.70
2023-03-04T15:16:18.712Z,60.80
2023-03-04T15:19:06.098Z,46.00
2023-03-04T15:21:41.362Z,49.50
2023-03-04T15:24:15.480Z,48.70
2023-03-04T15:26:50.307Z,54.50
2023-03-04T15:29:23.760Z,48.80
2023-03-04T15:31:56.245Z,48.60
2023-03-04T15:34:28.746Z,46.60
2023-03-04T15:37:02.955Z,44.20
2023-03-04T15:39:35.904Z,47.00
2023-03-04T15:42:13.655Z,48.60
2023-03-04T15:44:46.447Z,49.90
2023-03-04T15:47:18.850Z,41.40
2023-03-04T15:49:52.720Z,39.70
2023-03-04T15:52:25.941Z,44.60
2023-03-04T15:54:58.323Z,40.00
2023-03-04T15:57:30.984Z,36.90
2023-03-04T16:00:03.637Z,38.20
2023-03-04T16:02:36.056Z,43.40
2023-03-04T16:05:10.252Z,37.60
2023-03-04T16:07:43.559Z,41.50
2023-03-04T16:10:20.124Z,34.80
2023-03-04T16:12:53.488Z,33.90
2023-03-04T16:15:28.511Z,34.60
2023-03-04T16:18:00.939Z,31.30
2023-03-04T16:20:33.626Z,31.30
2023-03-04T16:23:06.757Z,34.70
2023-03-04T16:25:39.143Z,33.90
2023-03-04T16:28:13.723Z,33.40
2023-03-04T16:30:46.330Z,36.20
2023-03-04T16:33:18.843Z,32.70
2023-03-04T16:35:52.490Z,32.90
2023-03-04T16:38:28.284Z,35.90
2023-03-04T16:43:32.357Z,33.50
2023-03-04T16:46:04.681Z,30.20
2023-03-04T16:48:37.048Z,29.40
2023-03-04T16:51:16.858Z,27.80
2023-03-04T16:53:53.609Z,35.70
2023-03-04T16:56:26.090Z,35.50
2023-03-04T16:59:00.269Z,31.90
2023-03-04T17:01:34.150Z,39.50
2023-03-04T17:04:06.723Z,34.30
2023-03-04T17:06:40.087Z,41.50
2023-03-04T17:09:12.687Z,37.10
2023-03-04T17:11:45.120Z,33.00
2023-03-04T17:14:17.570Z,32.60
2023-03-04T17:16:49.938Z,36.90
2023-03-04T17:19:23.064Z,28.30
2023-03-04T17:21:57.053Z,38.00
2023-03-04T17:24:29.994Z,37.80
2023-03-04T17:27:02.299Z,38.10
2023-03-04T17:29:34.586Z,35.80
2023-03-04T17:32:07.427Z,47.30
2023-03-04T17:34:39.868Z,33.60
2023-03-04T17:37:12.162Z,37.20
2023-03-04T17:39:44.773Z,35.70
2023-03-04T17:42:17.176Z,36.60
2023-03-04T17:44:49.693Z,35.60
2023-03-04T17:47:22.709Z,40.60
2023-03-04T17:49:54.972Z,35.70
2023-03-04T17:52:27.373Z,38.40
2023-03-04T17:54:59.658Z,38.30
2023-03-04T17:57:32.109Z,35.70
2023-03-04T18:00:04.753Z,39.50
2023-03-04T18:02:37.203Z,33.90
2023-03-04T18:05:11.513Z,39.60
2023-03-04T18:07:43.773Z,33.80
2023-03-04T18:10:16.201Z,38.50
2023-03-04T18:12:48.683Z,44.80
2023-03-04T18:15:21.165Z,39.30
2023-03-04T18:17:53.438Z,39.80
2023-03-04T18:20:25.782Z,37.70
2023-03-04T18:22:58.997Z,43.20
2023-03-04T18:25:31.343Z,43.60
2023-03-04T18:28:04.432Z,39.10
2023-03-04T18:30:36.783Z,37.20
2023-03-04T18:33:09.059Z,34.60
2023-03-04T18:35:41.489Z,33.20
2023-03-04T18:38:13.777Z,33.40
2023-03-04T18:40:46.324Z,37.10
2023-03-04T18:43:18.705Z,42.40
2023-03-04T18:46:00.361Z,35.50
2023-03-04T18:48:36.000Z,36.40
2023-03-04T18:51:09.070Z,30.40
2023-03-04T18:53:42.293Z,35.70
2023-03-04T18:56:18.503Z,42.60
2023-03-04T18:58:52.987Z,40.30
2023-03-04T19:01:27.505Z,39.50
2023-03-04T19:04:04.777Z,43.70
2023-03-04T19:06:37.198Z,46.80
2023-03-04T19:09:10.007Z,34.30
2023-03-04T19:11:42.279Z,45.80
2023-03-04T19:14:14.540Z,43.20
2023-03-04T19:16:46.930Z,41.80
2023-03-04T19:19:19.435Z,43.00
2023-03-04T19:21:51.829Z,39.90
2023-03-04T19:24:24.496Z,48.30
2023-03-04T19:26:56.878Z,43.90
2023-03-04T19:29:29.967Z,44.20
2023-03-04T19:32:02.392Z,38.80
2023-03-04T19:34:34.804Z,41.20
2023-03-04T19:37:07.157Z,32.90
2023-03-04T19:39:39.592Z,43.00
2023-03-04T19:42:12.253Z,42.40
2023-03-04T19:44:45.412Z,42.30
2023-03-04T19:47:18.040Z,34.30
2023-03-04T19:49:50.621Z,37.90
2023-03-04T19:52:23.352Z,35.70
2023-03-04T19:54:56.070Z,37.20
2023-03-04T19:57:28.460Z,33.60
2023-03-04T20:00:00.821Z,37.70
2023-03-04T20:02:33.102Z,41.60
2023-03-04T20:05:06.031Z,39.60
2023-03-04T20:07:38.449Z,43.70
2023-03-04T20:10:14.482Z,40.00
2023-03-04T20:12:46.686Z,40.90
2023-03-04T20:15:19.094Z,39.70
2023-03-04T20:17:51.343Z,35.90
2023-03-04T20:20:25.286Z,38.00
2023-03-04T20:22:57.930Z,36.20
2023-03-04T20:25:32.072Z,34.30
2023-03-04T20:28:04.473Z,35.30
2023-03-04T20:30:36.759Z,34.30
2023-03-04T20:33:09.085Z,34.50
2023-03-04T20:35:41.755Z,37.90
2023-03-04T20:38:15.154Z,39.40
2023-03-04T20:40:47.536Z,34.00
2023-03-04T20:43:20.015Z,37.80
2023-03-04T20:45:52.326Z,44.70
2023-03-04T20:48:24.660Z,31.40
2023-03-04T20:50:57.253Z,41.60
2023-03-04T20:53:29.621Z,35.20
2023-03-04T20:56:05.400Z,41.10
2023-03-04T21:01:08.666Z,35.70
2023-03-04T21:03:41.341Z,33.30
2023-03-04T21:06:14.636Z,36.30
2023-03-04T21:08:46.948Z,39.20
2023-03-04T21:11:19.970Z,36.20
2023-03-04T21:13:57.869Z,39.80
2023-03-04T21:16:31.275Z,44.20
2023-03-04T21:19:03.596Z,33.60
2023-03-04T21:21:36.086Z,35.60
2023-03-04T21:24:09.016Z,37.10
2023-03-04T21:26:43.152Z,35.40
2023-03-04T21:29:15.828Z,37.70
2023-03-04T21:31:51.679Z,39.00
2023-03-04T21:34:26.907Z,40.90
2023-03-04T21:36:59.152Z,39.40
2023-03-04T21:39:32.114Z,40.90
2023-03-04T21:42:05.208Z,34.30
2023-03-04T21:44:49.302Z,32.50
2023-03-04T21:47:23.056Z,36.40
2023-03-04T21:49:55.640Z,42.90
2023-03-04T21:52:28.025Z,34.60
2023-03-04T21:55:00.733Z,42.60
2023-03-04T21:57:33.392Z,34.30
2023-03-04T22:00:06.926Z,33.10
2023-03-04T22:02:39.665Z,39.10
2023-03-04T22:05:12.661Z,42.70
2023-03-04T22:07:45.097Z,35.60
2023-03-04T22:10:17.548Z,40.50
2023-03-04T22:12:49.917Z,34.40
2023-03-04T22:15:22.368Z,33.40
2023-03-04T22:17:54.668Z,36.90
2023-03-04T22:20:27.149Z,42.40
2023-03-04T22:22:59.834Z,41.20
2023-03-04T22:25:32.504Z,33.50
2023-03-04T22:28:05.657Z,32.80
2023-03-04T22:30:38.984Z,39.20
2023-03-04T22:33:11.271Z,44.50
2023-03-04T22:35:44.435Z,36.60
2023-03-04T22:38:17.172Z,46.70
2023-03-04T22:40:50.195Z,37.90
2023-03-04T22:43:22.459Z,34.50
2023-03-04T22:45:55.230Z,36.90
2023-03-04T22:48:27.967Z,44.00
2023-03-04T22:51:05.942Z,36.00
2023-03-04T22:53:39.014Z,36.00
2023-03-04T22:56:12.107Z,42.20
2023-03-04T22:58:45.655Z,45.20
2023-03-04T23:01:19.556Z,36.30
2023-03-04T23:03:52.264Z,37.80
2023-03-04T23:06:27.901Z,39.90
2023-03-04T23:09:01.356Z,38.50
2023-03-04T23:11:36.600Z,37.20
2023-03-04T23:14:09.681Z,34.80
2023-03-04T23:16:44.475Z,38.10
2023-03-04T23:19:18.670Z,34.60
2023-03-04T23:21:51.085Z,26.60
2023-03-04T23:24:24.727Z,33.10
2023-03-04T23:26:57.053Z,32.60
2023-03-04T23:29:29.566Z,33.90
2023-03-04T23:32:02.223Z,34.80
2023-03-04T23:34:36.204Z,29.80
2023-03-04T23:37:08.808Z,39.40
2023-03-04T23:39:41.164Z,39.40
2023-03-04T23:42:13.581Z,39.70
2023-03-04T23:44:46.138Z,45.10
2023-03-04T23:47:18.542Z,40.10
2023-03-04T23:49:51.218Z,37.00
2023-03-04T23:52:23.653Z,36.30
2023-03-04T23:54:56.077Z,38.80
2023-03-04T23:57:28.628Z,35.30
